createdAt,value
2023-01-19T00:00:27.279Z,2.20
2023-01-19T00:02:54.951Z,2.10
2023-01-19T00:05:21.887Z,2.10
2023-01-19T00:07:48.709Z,2.10
2023-01-19T00:10:15.491Z,2.10
2023-01-19T00:12:42.227Z,2.00
2023-01-19T00:15:09.397Z,2.00
2023-01-19T00:17:36.123Z,2.00
2023-01-19T00:20:03.831Z,2.10
2023-01-19T00:22:30.487Z,2.10
2023-01-19T00:24:57.167Z,2.10
2023-01-19T00:27:24.470Z,2.10
2023-01-19T00:29:51.014Z,2.20
2023-01-19T00:32:18.033Z,2.20
2023-01-19T00:34:49.312Z,2.30
2023-01-19T00:37:17.266Z,2.30
2023-01-19T00:39:43.895Z,2.30
2023-01-19T00:42:32.687Z,2.30
2023-01-19T00:44:59.289Z,2.30
2023-01-19T00:47:25.942Z,2.30
2023-01-19T00:49:52.507Z,2.30
2023-01-19T00:52:19.558Z,2.40
2023-01-19T00:54:46.106Z,2.40
2023-01-19T00:57:12.711Z,2.40
2023-01-19T00:59:39.359Z,2.50
2023-01-19T01:02:06.243Z,2.50
2023-01-19T01:04:33.215Z,2.60
2023-01-19T01:06:59.880Z,2.60
2023-01-19T01:09:26.531Z,2.60
2023-01-19T01:11:53.295Z,2.50
2023-01-19T01:14:19.864Z,2.50
2023-01-19T01:16:46.795Z,2.50
2023-01-19T01:19:13.407Z,2.50
2023-01-19T01:21:40.028Z,2.60
2023-01-19T01:24:07.117Z,2.60
2023-01-19T01:26:33.756Z,2.50
2023-01-19T01:29:00.337Z,2.60
2023-01-19T01:31:27.207Z,2.70
2023-01-19T01:33:53.810Z,2.70
2023-01-19T01:36:21.570Z,2.60
2023-01-19T01:38:48.329Z,2.70
2023-01-19T01:41:15.059Z,2.70
2023-01-19T01:43:44.220Z,2.70
2023-01-19T01:46:11.738Z,2.50
2023-01-19T01:48:40.324Z,2.50
2023-01-19T01:51:24.690Z,2.50
2023-01-19T01:54:18.961Z,2.50
2023-01-19T01:56:48.790Z,2.50
2023-01-19T01:59:29.327Z,2.50
2023-01-19T02:02:17.310Z,2.50
2023-01-19T02:04:50.371Z,2.50
2023-01-19T02:07:48.364Z,2.50
2023-01-19T02:10:33.684Z,2.60
2023-01-19T02:13:19.209Z,2.60
2023-01-19T02:15:46.803Z,2.60
2023-01-19T02:18:16.058Z,2.60
2023-01-19T02:20:54.922Z,2.70
2023-01-19T02:23:41.181Z,2.70
2023-01-19T02:26:09.975Z,2.70
2023-01-19T02:28:43.240Z,2.70
2023-01-19T02:31:10.543Z,2.80
2023-01-19T02:33:37.555Z,2.70
2023-01-19T02:36:08.007Z,2.60
2023-01-19T02:38:35.852Z,2.60
2023-01-19T02:41:06.237Z,2.50
2023-01-19T02:43:33.878Z,2.50
2023-01-19T02:46:00.553Z,2.60
2023-01-19T02:48:27.165Z,2.60
2023-01-19T02:51:00.793Z,2.60
2023-01-19T02:53:45.676Z,2.60
2023-01-19T02:56:15.520Z,2.70
2023-01-19T02:58:51.232Z,2.70
2023-01-19T03:01:41.215Z,2.70
2023-01-19T03:04:54.663Z,2.70
2023-01-19T03:07:39.793Z,2.60
2023-01-19T03:10:38.688Z,2.60
2023-01-19T03:13:35.343Z,2.60
2023-01-19T03:16:06.690Z,2.60
2023-01-19T03:18:37.063Z,2.60
2023-01-19T03:21:07.153Z,2.60
2023-01-19T03:23:36.935Z,2.60
2023-01-19T03:26:06.893Z,2.60
2023-01-19T03:28:36.040Z,2.50
2023-01-19T03:31:10.503Z,2.40
2023-01-19T03:33:40.839Z,2.40
2023-01-19T03:36:12.820Z,2.40
2023-01-19T03:38:42.501Z,2.40
2023-01-19T03:41:13.500Z,2.40
2023-01-19T03:43:41.150Z,2.50
2023-01-19T03:46:11.247Z,2.60
2023-01-19T03:48:38.643Z,2.50
2023-01-19T03:51:07.881Z,2.60
2023-01-19T03:53:34.752Z,2.60
2023-01-19T03:56:01.325Z,2.60
2023-01-19T03:58:28.343Z,2.70
2023-01-19T04:00:54.946Z,2.70
2023-01-19T04:03:21.613Z,2.70
2023-01-19T04:05:48.226Z,2.70
2023-01-19T04:08:14.968Z,2.70
2023-01-19T04:10:41.513Z,2.60
2023-01-19T04:13:08.068Z,2.60
2023-01-19T04:15:34.689Z,2.50
2023-01-19T04:18:01.398Z,2.40
2023-01-19T04:20:28.851Z,2.30
2023-01-19T04:22:59.042Z,2.20
2023-01-19T04:25:25.740Z,2.20
2023-01-19T04:27:53.335Z,2.00
2023-01-19T04:30:20.495Z,2.00
2023-01-19T04:32:47.175Z,2.00
2023-01-19T04:35:13.777Z,2.00
2023-01-19T04:37:40.411Z,1.90
2023-01-19T04:40:07.834Z,1.90
2023-01-19T04:42:34.431Z,1.90
2023-01-19T04:45:00.969Z,2.00
2023-01-19T04:47:27.611Z,1.90
2023-01-19T04:49:54.175Z,1.80
2023-01-19T04:52:20.743Z,1.90
2023-01-19T04:54:47.659Z,2.00
2023-01-19T04:57:14.257Z,1.90
2023-01-19T04:59:40.842Z,1.90
2023-01-19T05:02:07.553Z,1.80
2023-01-19T05:04:34.194Z,1.80
2023-01-19T05:07:00.810Z,1.80
2023-01-19T05:09:27.352Z,1.70
2023-01-19T05:11:53.951Z,1.70
2023-01-19T05:14:20.812Z,1.70
2023-01-19T05:16:47.498Z,1.80
2023-01-19T05:19:14.094Z,1.80
2023-01-19T05:21:40.655Z,1.80
2023-01-19T05:24:07.674Z,1.80
2023-01-19T05:26:34.233Z,1.80
2023-01-19T05:29:00.853Z,1.80
2023-01-19T05:31:27.529Z,1.90
2023-01-19T05:33:54.161Z,1.90
2023-01-19T05:36:20.718Z,1.90
2023-01-19T05:38:47.246Z,1.70
2023-01-19T05:41:14.159Z,1.70
2023-01-19T05:43:40.733Z,1.60
2023-01-19T05:46:07.321Z,1.60
2023-01-19T05:48:34.004Z,1.60
2023-01-19T05:51:01.338Z,1.60
2023-01-19T05:53:28.872Z,1.60
2023-01-19T05:56:05.483Z,1.70
2023-01-19T05:58:34.277Z,1.60
2023-01-19T06:01:05.416Z,1.60
2023-01-19T06:03:34.748Z,1.60
2023-01-19T06:06:01.890Z,1.70
2023-01-19T06:08:28.744Z,1.60
2023-01-19T06:10:55.308Z,1.60
2023-01-19T06:13:21.906Z,1.60
2023-01-19T06:15:48.517Z,1.70
2023-01-19T06:18:24.208Z,1.70
2023-01-19T06:20:52.052Z,1.70
2023-01-19T06:23:18.627Z,1.60
2023-01-19T06:25:45.223Z,1.70
2023-01-19T06:28:11.752Z,1.70
2023-01-19T06:30:38.367Z,1.70
2023-01-19T06:33:04.943Z,1.70
2023-01-19T06:35:31.590Z,1.70
2023-01-19T06:37:58.197Z,1.60
2023-01-19T06:40:25.014Z,1.70
2023-01-19T06:42:58.823Z,1.70
2023-01-19T06:45:25.940Z,1.70
2023-01-19T06:47:52.494Z,1.70
2023-01-19T06:50:19.059Z,1.70
2023-01-19T06:52:45.600Z,1.60
2023-01-19T06:55:13.638Z,1.60
2023-01-19T06:57:40.794Z,1.70
2023-01-19T07:00:08.900Z,1.60
2023-01-19T07:02:35.989Z,1.60
2023-01-19T07:05:02.718Z,1.60
2023-01-19T07:07:29.453Z,1.70
2023-01-19T07:09:56.021Z,1.70
2023-01-19T07:12:23.092Z,1.70
2023-01-19T07:14:49.854Z,1.70
2023-01-19T07:17:16.450Z,1.70
2023-01-19T07:19:43.295Z,1.70
2023-01-19T07:22:10.006Z,1.70
2023-01-19T07:24:37.916Z,1.70
2023-01-19T07:27:05.329Z,1.70
2023-01-19T07:29:31.945Z,1.80
2023-01-19T07:31:58.493Z,1.70
2023-01-19T07:34:25.216Z,1.80
2023-01-19T07:36:51.790Z,1.80
2023-01-19T07:39:18.402Z,1.70
2023-01-19T07:41:44.960Z,1.70
2023-01-19T07:44:11.499Z,1.80
2023-01-19T07:46:38.057Z,1.80
2023-01-19T07:49:04.670Z,1.90
2023-01-19T07:51:31.285Z,1.90
2023-01-19T07:53:58.299Z,1.90
2023-01-19T07:56:27.582Z,1.90
2023-01-19T07:58:54.182Z,2.00
2023-01-19T08:01:20.840Z,2.10
2023-01-19T08:03:50.880Z,2.00
2023-01-19T08:06:26.041Z,2.00
2023-01-19T08:08:53.079Z,2.10
2023-01-19T08:11:19.636Z,2.10
2023-01-19T08:13:46.281Z,2.10
2023-01-19T08:16:19.277Z,2.10
2023-01-19T08:18:46.364Z,2.20
2023-01-19T08:21:13.114Z,2.20
2023-01-19T08:23:40.091Z,2.20
2023-01-19T08:26:29.807Z,2.20
2023-01-19T08:28:59.096Z,2.30
2023-01-19T08:31:26.221Z,2.30
2023-01-19T08:33:53.018Z,2.30
2023-01-19T08:36:20.325Z,2.30
2023-01-19T08:38:47.583Z,2.30
2023-01-19T08:41:16.354Z,2.30
2023-01-19T08:43:44.509Z,2.30
2023-01-19T08:46:12.248Z,2.40
2023-01-19T08:48:39.987Z,2.40
2023-01-19T08:51:06.738Z,2.50
2023-01-19T08:53:34.055Z,2.50
2023-01-19T08:56:01.878Z,2.50
2023-01-19T08:58:28.686Z,2.50
2023-01-19T09:00:55.966Z,2.60
2023-01-19T09:03:22.914Z,2.80
2023-01-19T09:05:49.675Z,2.80
2023-01-19T09:08:16.360Z,2.80
2023-01-19T09:10:48.513Z,2.70
2023-01-19T09:13:15.789Z,2.60
2023-01-19T09:15:43.458Z,2.60
2023-01-19T09:18:19.177Z,2.70
2023-01-19T09:20:47.907Z,2.70
2023-01-19T09:23:17.459Z,2.70
2023-01-19T09:25:45.969Z,2.70
2023-01-19T09:28:14.984Z,2.70
2023-01-19T09:30:43.167Z,2.60
2023-01-19T09:33:12.323Z,2.60
2023-01-19T09:35:39.681Z,2.60
2023-01-19T09:38:08.771Z,2.70
2023-01-19T09:40:42.120Z,2.60
2023-01-19T09:43:30.597Z,2.60
2023-01-19T09:46:12.872Z,2.60
2023-01-19T09:48:53.016Z,2.60
2023-01-19T09:51:28.998Z,2.70
2023-01-19T09:54:15.667Z,2.70
2023-01-19T09:56:44.176Z,2.80
2023-01-19T09:59:31.383Z,2.90
2023-01-19T10:02:35.543Z,2.90
2023-01-19T10:05:22.234Z,3.00
2023-01-19T10:08:06.087Z,3.10
2023-01-19T10:10:34.229Z,3.10
2023-01-19T10:13:26.015Z,3.10
2023-01-19T10:16:22.258Z,3.00
2023-01-19T10:18:51.926Z,3.00
2023-01-19T10:21:28.988Z,2.90
2023-01-19T10:24:01.521Z,2.90
2023-01-19T10:26:52.731Z,3.00
2023-01-19T10:29:34.363Z,3.00
2023-01-19T10:32:26.030Z,3.00
2023-01-19T10:34:53.973Z,3.00
2023-01-19T10:37:34.150Z,3.10
2023-01-19T10:40:09.886Z,3.20
2023-01-19T10:42:39.167Z,3.40
2023-01-19T10:45:14.602Z,3.30
2023-01-19T10:47:42.388Z,3.30
2023-01-19T10:50:24.292Z,3.20
2023-01-19T10:52:53.806Z,3.20
2023-01-19T10:55:30.633Z,3.20
2023-01-19T10:57:58.731Z,3.20
2023-01-19T11:00:40.468Z,3.40
2023-01-19T11:03:23.794Z,3.70
2023-01-19T11:05:50.967Z,4.10
2023-01-19T11:08:30.185Z,4.40
2023-01-19T11:11:04.439Z,4.50
2023-01-19T11:13:32.216Z,4.40
2023-01-19T11:16:05.141Z,4.60
2023-01-19T11:18:37.770Z,5.00
2023-01-19T11:21:16.450Z,5.20
2023-01-19T11:23:52.674Z,5.00
2023-01-19T11:26:47.937Z,4.80
2023-01-19T11:29:21.343Z,5.70
2023-01-19T11:31:49.205Z,5.60
2023-01-19T11:34:37.392Z,5.50
2023-01-19T11:37:26.203Z,5.60
2023-01-19T11:39:58.594Z,5.50
2023-01-19T11:42:26.064Z,5.20
2023-01-19T11:45:12.427Z,5.00
2023-01-19T11:47:50.288Z,4.80
2023-01-19T11:50:33.540Z,4.50
2023-01-19T11:53:18.809Z,4.40
2023-01-19T11:55:59.539Z,4.60
2023-01-19T11:58:26.786Z,4.70
2023-01-19T12:01:05.352Z,4.40
2023-01-19T12:04:05.258Z,4.50
2023-01-19T12:06:35.787Z,4.60
2023-01-19T12:09:21.067Z,4.50
2023-01-19T12:12:07.537Z,4.40
2023-01-19T12:14:41.034Z,4.40
2023-01-19T12:17:15.068Z,4.40
2023-01-19T12:19:55.267Z,5.00
2023-01-19T12:22:24.005Z,5.50
2023-01-19T12:25:33.532Z,5.60
2023-01-19T12:28:00.398Z,5.20
2023-01-19T12:30:29.327Z,5.20
2023-01-19T12:33:37.668Z,4.90
2023-01-19T12:36:10.295Z,4.80
2023-01-19T12:38:44.372Z,4.80
2023-01-19T12:41:30.729Z,4.80
2023-01-19T12:44:13.939Z,4.60
2023-01-19T12:47:03.299Z,4.60
2023-01-19T12:49:33.983Z,4.60
2023-01-19T12:52:22.272Z,4.60
2023-01-19T12:55:14.688Z,4.50
2023-01-19T12:57:50.142Z,4.60
2023-01-19T13:00:22.847Z,4.60
2023-01-19T13:02:56.054Z,4.70
2023-01-19T13:05:32.829Z,5.00
2023-01-19T13:08:02.794Z,5.20
2023-01-19T13:11:00.269Z,5.20
2023-01-19T13:13:31.123Z,5.00
2023-01-19T13:16:21.256Z,4.90
2023-01-19T13:18:55.860Z,4.80
2023-01-19T13:21:39.351Z,4.70
2023-01-19T13:24:08.256Z,5.10
2023-01-19T13:26:35.779Z,5.50
2023-01-19T13:29:15.351Z,5.90
2023-01-19T13:31:44.631Z,6.00
2023-01-19T13:34:20.943Z,6.30
2023-01-19T13:36:52.749Z,6.40
2023-01-19T13:39:28.617Z,5.90
2023-01-19T13:42:02.132Z,5.60
2023-01-19T13:44:34.975Z,5.60
2023-01-19T13:47:04.490Z,5.50
2023-01-19T13:49:35.748Z,5.20
2023-01-19T13:52:07.609Z,5.30
2023-01-19T13:54:34.222Z,5.40
2023-01-19T13:57:00.872Z,5.40
2023-01-19T13:59:27.447Z,5.60
2023-01-19T14:01:54.274Z,5.30
2023-01-19T14:04:30.217Z,5.20
2023-01-19T14:07:02.364Z,5.30
2023-01-19T14:09:29.271Z,5.10
2023-01-19T14:12:16.082Z,5.00
2023-01-19T14:14:44.244Z,4.90
2023-01-19T14:17:26.210Z,4.70
2023-01-19T14:19:58.006Z,4.60
2023-01-19T14:22:42.769Z,4.50
2023-01-19T14:25:35.095Z,4.50
2023-01-19T14:28:43.945Z,4.70
2023-01-19T14:31:24.059Z,4.70
2023-01-19T14:33:53.526Z,4.60
2023-01-19T14:36:36.040Z,4.50
2023-01-19T14:39:03.991Z,4.40
2023-01-19T14:41:44.578Z,4.30
2023-01-19T14:44:16.462Z,4.40
2023-01-19T14:46:47.807Z,4.50
2023-01-19T14:49:21.681Z,4.50
2023-01-19T14:51:49.667Z,4.40
2023-01-19T14:54:23.372Z,4.50
2023-01-19T14:56:53.521Z,4.40
2023-01-19T14:59:20.182Z,4.30
2023-01-19T15:01:46.899Z,4.20
2023-01-19T15:04:13.511Z,4.20
2023-01-19T15:06:43.070Z,4.10
2023-01-19T15:09:14.779Z,4.10
2023-01-19T15:11:42.005Z,4.00
2023-01-19T15:14:13.536Z,3.90
2023-01-19T15:16:40.864Z,3.80
2023-01-19T15:19:11.411Z,3.80
2023-01-19T15:21:41.849Z,3.80
2023-01-19T15:24:10.461Z,3.70
2023-01-19T15:26:42.162Z,3.60
2023-01-19T15:29:24.605Z,3.60
2023-01-19T15:31:51.669Z,3.60
2023-01-19T15:34:18.394Z,3.50
2023-01-19T15:36:45.053Z,3.40
2023-01-19T15:39:11.764Z,3.40
2023-01-19T15:41:39.770Z,3.30
2023-01-19T15:44:08.391Z,3.20
2023-01-19T15:46:35.043Z,3.10
2023-01-19T15:49:01.670Z,3.10
2023-01-19T15:51:28.563Z,3.10
2023-01-19T15:53:55.858Z,2.90
2023-01-19T15:56:25.035Z,2.90
2023-01-19T15:58:53.329Z,2.80
2023-01-19T16:01:22.504Z,2.80
2023-01-19T16:03:50.498Z,2.60
2023-01-19T16:06:17.846Z,2.60
2023-01-19T16:08:44.842Z,2.50
2023-01-19T16:11:14.441Z,2.50
2023-01-19T16:13:43.937Z,2.50
2023-01-19T16:16:21.914Z,2.50
2023-01-19T16:18:48.720Z,2.50
2023-01-19T16:21:15.496Z,2.50
2023-01-19T16:23:42.157Z,2.40
2023-01-19T16:26:25.973Z,2.40
2023-01-19T16:28:57.793Z,2.40
2023-01-19T16:31:24.589Z,2.40
2023-01-19T16:33:51.238Z,2.30
2023-01-19T16:36:29.553Z,2.20
2023-01-19T16:39:00.172Z,2.10
2023-01-19T16:41:27.290Z,2.10
2023-01-19T16:43:55.603Z,2.10
2023-01-19T16:46:35.244Z,2.10
2023-01-19T16:49:04.318Z,2.00
2023-01-19T16:51:31.775Z,2.00
2023-01-19T16:53:58.487Z,2.00
2023-01-19T16:56:25.154Z,2.00
2023-01-19T16:58:56.386Z,1.90
2023-01-19T17:01:24.729Z,1.90
2023-01-19T17:03:51.954Z,2.00
2023-01-19T17:06:20.334Z,2.00
2023-01-19T17:08:47.393Z,2.00
2023-01-19T17:11:20.742Z,2.00
2023-01-19T17:13:48.548Z,2.00
2023-01-19T17:16:15.404Z,2.00
2023-01-19T17:18:42.355Z,2.00
2023-01-19T17:21:09.946Z,2.10
2023-01-19T17:23:37.387Z,2.20
2023-01-19T17:26:05.278Z,2.20
2023-01-19T17:28:31.941Z,2.30
2023-01-19T17:31:05.782Z,2.30
2023-01-19T17:33:32.726Z,2.30
2023-01-19T17:36:08.300Z,2.40
2023-01-19T17:38:35.811Z,2.30
2023-01-19T17:41:02.520Z,2.30
2023-01-19T17:43:29.105Z,2.20
2023-01-19T17:45:55.715Z,2.00
2023-01-19T17:48:22.500Z,2.00
2023-01-19T17:50:49.091Z,2.00
2023-01-19T17:53:15.688Z,2.00
2023-01-19T17:55:42.221Z,2.00
2023-01-19T17:58:08.794Z,2.00
2023-01-19T18:00:35.456Z,2.00
2023-01-19T18:03:02.183Z,1.80
2023-01-19T18:05:28.780Z,1.70
2023-01-19T18:07:55.411Z,1.70
2023-01-19T18:10:22.200Z,1.60
2023-01-19T18:12:48.800Z,1.70
2023-01-19T18:15:16.893Z,1.70
2023-01-19T18:17:43.753Z,1.70
2023-01-19T18:20:11.254Z,1.60
2023-01-19T18:22:38.115Z,1.60
2023-01-19T18:25:04.998Z,1.60
2023-01-19T18:27:31.609Z,1.50
2023-01-19T18:29:58.183Z,1.50
2023-01-19T18:32:27.125Z,1.50
2023-01-19T18:34:54.132Z,1.50
2023-01-19T18:37:20.792Z,1.60
2023-01-19T18:39:47.498Z,1.60
2023-01-19T18:42:14.253Z,1.60
2023-01-19T18:44:41.164Z,1.60
2023-01-19T18:47:07.718Z,1.60
2023-01-19T18:49:34.297Z,1.70
2023-01-19T18:52:00.930Z,0.60
2023-01-19T18:54:27.519Z,1.80
2023-01-19T18:56:54.102Z,1.70
2023-01-19T18:59:20.709Z,1.70
2023-01-19T19:01:47.762Z,1.70
2023-01-19T19:04:15.766Z,1.70
2023-01-19T19:06:51.595Z,1.70
2023-01-19T19:09:19.787Z,1.70
2023-01-19T19:11:46.765Z,1.60
2023-01-19T19:14:13.401Z,1.60
2023-01-19T19:16:40.377Z,1.60
2023-01-19T19:19:08.204Z,1.50
2023-01-19T19:21:36.527Z,1.60
2023-01-19T19:24:03.159Z,1.60
2023-01-19T19:26:31.371Z,1.60
2023-01-19T19:28:58.251Z,1.60
2023-01-19T19:31:33.789Z,1.70
2023-01-19T19:34:01.069Z,1.70
2023-01-19T19:36:36.570Z,1.80
2023-01-19T19:39:03.252Z,1.80
2023-01-19T19:41:33.809Z,1.80
2023-01-19T19:44:00.364Z,1.70
2023-01-19T19:46:27.154Z,2.70
2023-01-19T19:48:54.369Z,1.80
2023-01-19T19:51:26.810Z,1.90
2023-01-19T19:53:55.867Z,1.80
2023-01-19T19:56:24.055Z,1.80
2023-01-19T19:58:51.652Z,1.80
2023-01-19T20:01:27.211Z,1.80
2023-01-19T20:03:55.021Z,1.80
2023-01-19T20:06:24.737Z,1.90
2023-01-19T20:08:53.771Z,1.90
2023-01-19T20:11:27.841Z,2.00
2023-01-19T20:13:54.879Z,2.10
2023-01-19T20:16:23.135Z,2.10
2023-01-19T20:18:53.790Z,2.20
2023-01-19T20:21:23.460Z,2.20
2023-01-19T20:23:50.547Z,2.10
2023-01-19T20:26:20.531Z,2.10
2023-01-19T20:28:47.836Z,2.10
2023-01-19T20:31:23.890Z,2.10
2023-01-19T20:33:51.597Z,2.00
2023-01-19T20:36:18.746Z,2.00
2023-01-19T20:38:45.513Z,1.90
2023-01-19T20:41:13.448Z,1.90
2023-01-19T20:43:43.071Z,1.80
2023-01-19T20:46:10.218Z,1.80
2023-01-19T20:48:38.987Z,1.80
2023-01-19T20:51:11.245Z,1.70
2023-01-19T20:53:39.591Z,1.70
2023-01-19T20:56:10.866Z,1.80
2023-01-19T20:58:37.710Z,1.80
2023-01-19T21:01:14.724Z,1.90
2023-01-19T21:03:42.144Z,1.90
2023-01-19T21:06:09.480Z,2.00
2023-01-19T21:08:36.601Z,2.10
2023-01-19T21:11:03.568Z,2.10
2023-01-19T21:13:30.632Z,4.30
2023-01-19T21:15:57.502Z,2.00
2023-01-19T21:18:24.914Z,2.00
2023-01-19T21:21:10.673Z,2.00
2023-01-19T21:23:41.792Z,2.00
2023-01-19T21:26:08.500Z,2.00
2023-01-19T21:28:35.054Z,2.00
2023-01-19T21:31:12.899Z,2.00
2023-01-19T21:33:40.384Z,2.00
2023-01-19T21:36:08.174Z,2.00
2023-01-19T21:38:36.319Z,2.00
2023-01-19T21:41:08.086Z,1.90
2023-01-19T21:43:36.616Z,1.90
2023-01-19T21:46:29.127Z,1.80
2023-01-19T21:48:57.307Z,1.80
2023-01-19T21:51:24.046Z,1.80
2023-01-19T21:53:59.572Z,1.80
2023-01-19T21:56:30.723Z,1.90
2023-01-19T21:58:58.423Z,1.80
2023-01-19T22:01:25.330Z,1.90
2023-01-19T22:03:56.598Z,1.80
2023-01-19T22:06:24.553Z,1.70
2023-01-19T22:08:51.394Z,1.70
2023-01-19T22:11:20.228Z,1.60
2023-01-19T22:13:47.250Z,1.60
2023-01-19T22:16:18.885Z,1.60
2023-01-19T22:18:49.862Z,1.50
2023-01-19T22:21:19.294Z,1.50
2023-01-19T22:23:50.413Z,1.60
2023-01-19T22:26:17.031Z,1.60
2023-01-19T22:28:43.679Z,1.60
2023-01-19T22:31:17.881Z,1.60
2023-01-19T22:33:45.108Z,1.60
2023-01-19T22:36:14.702Z,1.70
2023-01-19T22:38:42.289Z,1.80
2023-01-19T22:41:18.085Z,1.80
2023-01-19T22:43:44.958Z,1.90
2023-01-19T22:46:12.430Z,2.00
2023-01-19T22:48:40.407Z,2.10
2023-01-19T22:51:07.243Z,2.10
2023-01-19T22:53:33.956Z,2.10
2023-01-19T22:56:00.631Z,2.10
2023-01-19T22:58:27.224Z,2.10
2023-01-19T23:00:53.934Z,2.10
2023-01-19T23:03:20.638Z,2.10
2023-01-19T23:05:47.246Z,2.20
2023-01-19T23:08:13.967Z,2.20
2023-01-19T23:10:40.614Z,2.20
2023-01-19T23:13:07.198Z,2.20
2023-01-19T23:15:34.809Z,2.20
2023-01-19T23:18:01.535Z,2.30
2023-01-19T23:20:28.269Z,2.30
2023-01-19T23:22:54.845Z,2.30
2023-01-19T23:25:21.646Z,2.30
2023-01-19T23:27:48.322Z,2.30
2023-01-19T23:30:15.019Z,2.30
2023-01-19T23:32:47.029Z,2.40
2023-01-19T23:35:14.554Z,2.40
2023-01-19T23:37:41.797Z,2.40
2023-01-19T23:40:10.257Z,2.40
2023-01-19T23:42:37.055Z,2.30
2023-01-19T23:45:04.163Z,2.30
2023-01-19T23:47:32.611Z,2.40
2023-01-19T23:49:59.168Z,2.40
2023-01-19T23:52:25.771Z,2.30
2023-01-19T23:54:52.335Z,2.30
2023-01-19T23:57:18.898Z,2.30
2023-01-19T23:59:47.023Z,2.30
